sensor_id;sensor_type;location;lat;lon;timestamp;temperature;humidity
2463;DHT22;1243;54.298;10.172;2024-03-07T00:02:15;4.40;1.00
2463;DHT22;1243;54.298;10.172;2024-03-07T00:04:43;4.40;1.00
2463;DHT22;1243;54.298;10.172;2024-03-07T00:07:09;4.40;1.00
2463;DHT22;1243;54.298;10.172;2024-03-07T00:09:35;4.40;1.00
2463;DHT22;1243;54.298;10.172;2024-03-07T00:12:04;4.30;1.00
2463;DHT22;1243;54.298;10.172;2024-03-07T00:14:33;4.30;1.00
2463;DHT22;1243;54.298;10.172;2024-03-07T00:17:01;4.40;1.00
2463;DHT22;1243;54.298;10.172;2024-03-07T00:19:28;4.40;1.00
2463;DHT22;1243;54.298;10.172;2024-03-07T00:21:56;4.40;1.00
2463;DHT22;1243;54.298;10.172;2024-03-07T00:24:22;4.40;1.00
2463;DHT22;1243;54.298;10.172;2024-03-07T00:26:48;4.40;1.00
2463;DHT22;1243;54.298;10.172;2024-03-07T00:29:19;4.40;1.00
2463;DHT22;1243;54.298;10.172;2024-03-07T00:31:45;4.40;1.00
2463;DHT22;1243;54.298;10.172;2024-03-07T00:34:13;4.40;1.00
2463;DHT22;1243;54.298;10.172;2024-03-07T00:36:40;4.40;1.00
2463;DHT22;1243;54.298;10.172;2024-03-07T00:39:05;4.30;1.00
2463;DHT22;1243;54.298;10.172;2024-03-07T00:41:34;4.20;1.00
2463;DHT22;1243;54.298;10.172;2024-03-07T00:43:59;4.20;1.00
2463;DHT22;1243;54.298;10.172;2024-03-07T00:46:25;4.30;1.00
2463;DHT22;1243;54.298;10.172;2024-03-07T00:48:51;4.30;1.00
2463;DHT22;1243;54.298;10.172;2024-03-07T00:51:16;4.20;1.00
2463;DHT22;1243;54.298;10.172;2024-03-07T00:53:42;4.20;1.00
2463;DHT22;1243;54.298;10.172;2024-03-07T00:56:08;4.20;1.00
2463;DHT22;1243;54.298;10.172;2024-03-07T00:58:33;4.10;1.00
2463;DHT22;1243;54.298;10.172;2024-03-07T01:01:00;4.10;1.00
2463;DHT22;1243;54.298;10.172;2024-03-07T01:03:26;4.00;1.00
2463;DHT22;1243;54.298;10.172;2024-03-07T01:05:52;4.10;1.00
2463;DHT22;1243;54.298;10.172;2024-03-07T01:08:18;4.10;1.00
2463;DHT22;1243;54.298;10.172;2024-03-07T01:10:43;4.10;1.00
2463;DHT22;1243;54.298;10.172;2024-03-07T01:13:09;4.00;1.00
2463;DHT22;1243;54.298;10.172;2024-03-07T01:15:44;4.10;1.00
2463;DHT22;1243;54.298;10.172;2024-03-07T01:18:11;4.10;1.00
2463;DHT22;1243;54.298;10.172;2024-03-07T01:20:36;4.10;1.00
2463;DHT22;1243;54.298;10.172;2024-03-07T01:23:02;4.00;1.00
2463;DHT22;1243;54.298;10.172;2024-03-07T01:25:28;4.00;1.00
2463;DHT22;1243;54.298;10.172;2024-03-07T01:27:53;4.00;1.00
2463;DHT22;1243;54.298;10.172;2024-03-07T01:30:21;4.10;1.00
2463;DHT22;1243;54.298;10.172;2024-03-07T01:32:48;4.20;1.00
2463;DHT22;1243;54.298;10.172;2024-03-07T01:35:14;4.20;1.00
2463;DHT22;1243;54.298;10.172;2024-03-07T01:37:41;4.20;1.00
2463;DHT22;1243;54.298;10.172;2024-03-07T01:40:07;4.20;1.00
2463;DHT22;1243;54.298;10.172;2024-03-07T01:42:33;4.20;1.00
2463;DHT22;1243;54.298;10.172;2024-03-07T01:44:59;4.20;1.00
2463;DHT22;1243;54.298;10.172;2024-03-07T01:47:25;4.10;1.00
2463;DHT22;1243;54.298;10.172;2024-03-07T01:49:51;4.10;1.00
2463;DHT22;1243;54.298;10.172;2024-03-07T01:52:17;4.00;1.00
2463;DHT22;1243;54.298;10.172;2024-03-07T01:54:43;4.10;1.00
2463;DHT22;1243;54.298;10.172;2024-03-07T01:57:09;4.10;1.00
2463;DHT22;1243;54.298;10.172;2024-03-07T01:59:35;4.10;1.00
2463;DHT22;1243;54.298;10.172;2024-03-07T02:02:04;4.00;1.00
2463;DHT22;1243;54.298;10.172;2024-03-07T02:04:29;4.00;1.00
2463;DHT22;1243;54.298;10.172;2024-03-07T02:06:55;3.80;1.00
2463;DHT22;1243;54.298;10.172;2024-03-07T02:09:22;3.80;1.00
2463;DHT22;1243;54.298;10.172;2024-03-07T02:11:48;3.80;1.00
2463;DHT22;1243;54.298;10.172;2024-03-07T02:14:16;3.80;1.00
2463;DHT22;1243;54.298;10.172;2024-03-07T02:16:42;3.70;99.90
2463;DHT22;1243;54.298;10.172;2024-03-07T02:19:17;3.60;99.90
2463;DHT22;1243;54.298;10.172;2024-03-07T02:21:50;3.60;99.90
2463;DHT22;1243;54.298;10.172;2024-03-07T02:24:25;3.70;99.90
2463;DHT22;1243;54.298;10.172;2024-03-07T02:26:50;3.60;99.90
2463;DHT22;1243;54.298;10.172;2024-03-07T02:29:17;3.60;99.90
2463;DHT22;1243;54.298;10.172;2024-03-07T02:31:45;3.60;99.90
2463;DHT22;1243;54.298;10.172;2024-03-07T02:34:10;3.40;99.90
2463;DHT22;1243;54.298;10.172;2024-03-07T02:36:36;3.40;99.90
2463;DHT22;1243;54.298;10.172;2024-03-07T02:39:02;3.40;99.90
2463;DHT22;1243;54.298;10.172;2024-03-07T02:41:28;3.40;99.90
2463;DHT22;1243;54.298;10.172;2024-03-07T02:43:54;3.40;99.90
2463;DHT22;1243;54.298;10.172;2024-03-07T02:46:19;3.50;99.90
2463;DHT22;1243;54.298;10.172;2024-03-07T02:48:45;3.50;99.90
2463;DHT22;1243;54.298;10.172;2024-03-07T02:51:11;3.50;99.90
2463;DHT22;1243;54.298;10.172;2024-03-07T02:53:37;3.50;99.90
2463;DHT22;1243;54.298;10.172;2024-03-07T02:56:04;3.50;99.90
2463;DHT22;1243;54.298;10.172;2024-03-07T02:58:33;3.50;99.90
2463;DHT22;1243;54.298;10.172;2024-03-07T03:01:00;3.40;99.90
2463;DHT22;1243;54.298;10.172;2024-03-07T03:03:26;3.40;99.90
2463;DHT22;1243;54.298;10.172;2024-03-07T03:05:52;3.40;99.90
2463;DHT22;1243;54.298;10.172;2024-03-07T03:08:18;3.50;99.90
2463;DHT22;1243;54.298;10.172;2024-03-07T03:10:44;3.50;99.90
2463;DHT22;1243;54.298;10.172;2024-03-07T03:13:10;3.50;99.90
2463;DHT22;1243;54.298;10.172;2024-03-07T03:15:36;3.50;99.90
2463;DHT22;1243;54.298;10.172;2024-03-07T03:18:04;3.50;99.90
2463;DHT22;1243;54.298;10.172;2024-03-07T03:20:31;3.50;99.90
2463;DHT22;1243;54.298;10.172;2024-03-07T03:23:00;3.50;99.90
2463;DHT22;1243;54.298;10.172;2024-03-07T03:25:28;3.50;99.90
2463;DHT22;1243;54.298;10.172;2024-03-07T03:27:53;3.50;99.90
2463;DHT22;1243;54.298;10.172;2024-03-07T03:30:19;3.50;99.90
2463;DHT22;1243;54.298;10.172;2024-03-07T03:32:48;3.50;99.90
2463;DHT22;1243;54.298;10.172;2024-03-07T03:35:14;3.50;99.90
2463;DHT22;1243;54.298;10.172;2024-03-07T03:37:41;3.50;99.90
2463;DHT22;1243;54.298;10.172;2024-03-07T03:40:08;3.40;99.90
2463;DHT22;1243;54.298;10.172;2024-03-07T03:42:41;3.40;99.90
2463;DHT22;1243;54.298;10.172;2024-03-07T03:45:09;3.30;99.90
2463;DHT22;1243;54.298;10.172;2024-03-07T03:47:36;3.30;99.90
2463;DHT22;1243;54.298;10.172;2024-03-07T03:50:05;3.20;99.90
2463;DHT22;1243;54.298;10.172;2024-03-07T03:52:32;3.20;99.90
2463;DHT22;1243;54.298;10.172;2024-03-07T03:54:58;3.20;99.90
2463;DHT22;1243;54.298;10.172;2024-03-07T03:57:25;3.30;99.90
2463;DHT22;1243;54.298;10.172;2024-03-07T03:59:51;3.40;99.90
2463;DHT22;1243;54.298;10.172;2024-03-07T04:02:17;3.50;99.90
2463;DHT22;1243;54.298;10.172;2024-03-07T04:04:43;3.60;99.90
2463;DHT22;1243;54.298;10.172;2024-03-07T04:07:11;3.60;99.90
2463;DHT22;1243;54.298;10.172;2024-03-07T04:09:38;3.40;99.90
2463;DHT22;1243;54.298;10.172;2024-03-07T04:12:04;3.40;99.90
2463;DHT22;1243;54.298;10.172;2024-03-07T04:14:31;3.40;99.90
2463;DHT22;1243;54.298;10.172;2024-03-07T04:16:58;3.40;99.90
2463;DHT22;1243;54.298;10.172;2024-03-07T04:19:24;3.30;99.90
2463;DHT22;1243;54.298;10.172;2024-03-07T04:21:51;3.30;99.90
2463;DHT22;1243;54.298;10.172;2024-03-07T04:24:17;3.30;99.90
2463;DHT22;1243;54.298;10.172;2024-03-07T04:26:43;3.20;99.90
2463;DHT22;1243;54.298;10.172;2024-03-07T04:29:08;3.20;99.90
2463;DHT22;1243;54.298;10.172;2024-03-07T04:31:34;3.20;99.90
2463;DHT22;1243;54.298;10.172;2024-03-07T04:34:00;3.20;99.90
2463;DHT22;1243;54.298;10.172;2024-03-07T04:36:26;3.10;99.90
2463;DHT22;1243;54.298;10.172;2024-03-07T04:38:52;3.10;99.90
2463;DHT22;1243;54.298;10.172;2024-03-07T04:41:18;3.10;99.90
2463;DHT22;1243;54.298;10.172;2024-03-07T04:43:44;3.10;99.90
2463;DHT22;1243;54.298;10.172;2024-03-07T04:46:10;3.20;99.90
2463;DHT22;1243;54.298;10.172;2024-03-07T04:48:36;3.20;99.90
2463;DHT22;1243;54.298;10.172;2024-03-07T04:51:02;3.10;99.90
2463;DHT22;1243;54.298;10.172;2024-03-07T04:53:29;3.10;99.90
2463;DHT22;1243;54.298;10.172;2024-03-07T04:55:55;3.00;99.90
2463;DHT22;1243;54.298;10.172;2024-03-07T04:58:21;3.00;99.90
2463;DHT22;1243;54.298;10.172;2024-03-07T05:00:47;3.00;99.90
2463;DHT22;1243;54.298;10.172;2024-03-07T05:03:13;3.00;99.90
2463;DHT22;1243;54.298;10.172;2024-03-07T05:05:38;2.90;99.90
2463;DHT22;1243;54.298;10.172;2024-03-07T05:08:06;2.90;99.90
2463;DHT22;1243;54.298;10.172;2024-03-07T05:10:32;2.90;99.90
2463;DHT22;1243;54.298;10.172;2024-03-07T05:12:57;2.90;99.90
2463;DHT22;1243;54.298;10.172;2024-03-07T05:15:26;2.80;99.90
2463;DHT22;1243;54.298;10.172;2024-03-07T05:17:52;2.80;99.90
2463;DHT22;1243;54.298;10.172;2024-03-07T05:20:18;2.80;99.90
2463;DHT22;1243;54.298;10.172;2024-03-07T05:22:44;2.80;99.90
2463;DHT22;1243;54.298;10.172;2024-03-07T05:25:19;2.70;99.90
2463;DHT22;1243;54.298;10.172;2024-03-07T05:27:45;2.70;99.90
2463;DHT22;1243;54.298;10.172;2024-03-07T05:30:11;2.70;99.90
2463;DHT22;1243;54.298;10.172;2024-03-07T05:32:39;2.70;99.90
2463;DHT22;1243;54.298;10.172;2024-03-07T05:35:06;2.70;99.90
2463;DHT22;1243;54.298;10.172;2024-03-07T05:37:31;2.70;99.90
2463;DHT22;1243;54.298;10.172;2024-03-07T05:39:57;2.80;99.90
2463;DHT22;1243;54.298;10.172;2024-03-07T05:42:23;2.80;99.90
2463;DHT22;1243;54.298;10.172;2024-03-07T05:44:50;2.80;99.90
2463;DHT22;1243;54.298;10.172;2024-03-07T05:47:16;2.90;99.90
2463;DHT22;1243;54.298;10.172;2024-03-07T05:49:43;2.90;99.90
2463;DHT22;1243;54.298;10.172;2024-03-07T05:52:09;2.90;99.90
2463;DHT22;1243;54.298;10.172;2024-03-07T05:54:35;2.80;99.90
2463;DHT22;1243;54.298;10.172;2024-03-07T05:57:01;2.90;99.90
2463;DHT22;1243;54.298;10.172;2024-03-07T05:59:27;2.90;99.90
2463;DHT22;1243;54.298;10.172;2024-03-07T06:01:57;2.90;99.90
2463;DHT22;1243;54.298;10.172;2024-03-07T06:04:23;2.90;99.90
2463;DHT22;1243;54.298;10.172;2024-03-07T06:06:48;2.90;99.90
2463;DHT22;1243;54.298;10.172;2024-03-07T06:09:15;2.90;99.90
2463;DHT22;1243;54.298;10.172;2024-03-07T06:11:47;2.90;99.90
2463;DHT22;1243;54.298;10.172;2024-03-07T06:14:13;2.90;99.90
2463;DHT22;1243;54.298;10.172;2024-03-07T06:16:39;3.00;99.90
2463;DHT22;1243;54.298;10.172;2024-03-07T06:19:06;2.90;99.90
2463;DHT22;1243;54.298;10.172;2024-03-07T06:21:34;2.90;99.90
2463;DHT22;1243;54.298;10.172;2024-03-07T06:24:00;3.00;99.90
2463;DHT22;1243;54.298;10.172;2024-03-07T06:26:30;3.10;99.90
2463;DHT22;1243;54.298;10.172;2024-03-07T06:29:11;3.20;99.90
2463;DHT22;1243;54.298;10.172;2024-03-07T06:31:37;3.10;99.90
2463;DHT22;1243;54.298;10.172;2024-03-07T06:34:03;3.10;99.90
2463;DHT22;1243;54.298;10.172;2024-03-07T06:36:29;3.20;99.90
2463;DHT22;1243;54.298;10.172;2024-03-07T06:38:55;3.20;99.90
2463;DHT22;1243;54.298;10.172;2024-03-07T06:41:20;3.30;99.90
2463;DHT22;1243;54.298;10.172;2024-03-07T06:43:46;3.30;99.90
2463;DHT22;1243;54.298;10.172;2024-03-07T06:46:12;3.40;99.90
2463;DHT22;1243;54.298;10.172;2024-03-07T06:48:39;3.50;99.90
2463;DHT22;1243;54.298;10.172;2024-03-07T06:51:06;3.50;99.90
2463;DHT22;1243;54.298;10.172;2024-03-07T06:53:31;3.70;99.90
2463;DHT22;1243;54.298;10.172;2024-03-07T06:55:57;3.70;99.90
2463;DHT22;1243;54.298;10.172;2024-03-07T06:58:23;3.70;99.90
2463;DHT22;1243;54.298;10.172;2024-03-07T07:00:49;3.80;99.90
2463;DHT22;1243;54.298;10.172;2024-03-07T07:03:24;3.80;99.90
2463;DHT22;1243;54.298;10.172;2024-03-07T07:05:58;3.80;99.90
2463;DHT22;1243;54.298;10.172;2024-03-07T07:08:24;3.90;99.90
2463;DHT22;1243;54.298;10.172;2024-03-07T07:10:50;3.90;99.90
2463;DHT22;1243;54.298;10.172;2024-03-07T07:13:16;3.80;99.90
2463;DHT22;1243;54.298;10.172;2024-03-07T07:15:42;3.90;99.90
2463;DHT22;1243;54.298;10.172;2024-03-07T07:18:08;4.00;99.90
2463;DHT22;1243;54.298;10.172;2024-03-07T07:20:36;4.00;99.90
2463;DHT22;1243;54.298;10.172;2024-03-07T07:23:01;3.90;99.90
2463;DHT22;1243;54.298;10.172;2024-03-07T07:25:29;3.90;99.90
2463;DHT22;1243;54.298;10.172;2024-03-07T07:27:55;3.90;99.90
2463;DHT22;1243;54.298;10.172;2024-03-07T07:30:22;3.90;99.90
2463;DHT22;1243;54.298;10.172;2024-03-07T07:32:49;3.90;99.90
2463;DHT22;1243;54.298;10.172;2024-03-07T07:35:15;4.00;99.90
2463;DHT22;1243;54.298;10.172;2024-03-07T07:37:45;4.20;99.90
2463;DHT22;1243;54.298;10.172;2024-03-07T07:40:13;4.30;99.90
2463;DHT22;1243;54.298;10.172;2024-03-07T07:42:43;4.30;99.90
2463;DHT22;1243;54.298;10.172;2024-03-07T07:45:10;4.40;99.90
2463;DHT22;1243;54.298;10.172;2024-03-07T07:47:40;4.50;99.90
2463;DHT22;1243;54.298;10.172;2024-03-07T07:50:12;4.40;99.90
2463;DHT22;1243;54.298;10.172;2024-03-07T07:52:50;4.50;99.90
2463;DHT22;1243;54.298;10.172;2024-03-07T07:55:17;4.40;99.90
2463;DHT22;1243;54.298;10.172;2024-03-07T07:57:44;4.40;99.90
2463;DHT22;1243;54.298;10.172;2024-03-07T08:00:18;4.50;99.90
2463;DHT22;1243;54.298;10.172;2024-03-07T08:03:06;4.50;99.90
2463;DHT22;1243;54.298;10.172;2024-03-07T08:05:33;4.50;99.90
2463;DHT22;1243;54.298;10.172;2024-03-07T08:08:03;4.60;99.90
2463;DHT22;1243;54.298;10.172;2024-03-07T08:10:31;4.80;99.90
2463;DHT22;1243;54.298;10.172;2024-03-07T08:12:57;4.80;99.90
2463;DHT22;1243;54.298;10.172;2024-03-07T08:15:24;4.70;99.90
2463;DHT22;1243;54.298;10.172;2024-03-07T08:17:50;4.80;99.90
2463;DHT22;1243;54.298;10.172;2024-03-07T08:20:18;4.80;99.90
2463;DHT22;1243;54.298;10.172;2024-03-07T08:22:46;4.80;99.90
2463;DHT22;1243;54.298;10.172;2024-03-07T08:25:15;4.80;99.90
2463;DHT22;1243;54.298;10.172;2024-03-07T08:27:45;4.90;99.90
2463;DHT22;1243;54.298;10.172;2024-03-07T08:30:11;4.90;99.90
2463;DHT22;1243;54.298;10.172;2024-03-07T08:32:41;4.70;99.90
2463;DHT22;1243;54.298;10.172;2024-03-07T08:35:07;4.70;99.90
2463;DHT22;1243;54.298;10.172;2024-03-07T08:37:37;4.80;99.90
2463;DHT22;1243;54.298;10.172;2024-03-07T08:40:05;4.80;99.90
2463;DHT22;1243;54.298;10.172;2024-03-07T08:42:36;4.70;99.90
2463;DHT22;1243;54.298;10.172;2024-03-07T08:45:03;4.70;99.90
2463;DHT22;1243;54.298;10.172;2024-03-07T08:47:32;4.80;99.90
2463;DHT22;1243;54.298;10.172;2024-03-07T08:49:59;4.80;99.90
2463;DHT22;1243;54.298;10.172;2024-03-07T08:52:25;4.80;99.90
2463;DHT22;1243;54.298;10.172;2024-03-07T08:54:52;4.90;99.90
2463;DHT22;1243;54.298;10.172;2024-03-07T08:57:18;4.90;99.90
2463;DHT22;1243;54.298;10.172;2024-03-07T08:59:46;5.00;99.90
2463;DHT22;1243;54.298;10.172;2024-03-07T09:02:11;5.00;99.90
2463;DHT22;1243;54.298;10.172;2024-03-07T09:04:38;5.00;99.90
2463;DHT22;1243;54.298;10.172;2024-03-07T09:07:07;5.10;99.90
2463;DHT22;1243;54.298;10.172;2024-03-07T09:09:33;5.00;99.90
2463;DHT22;1243;54.298;10.172;2024-03-07T09:12:00;5.00;99.90
2463;DHT22;1243;54.298;10.172;2024-03-07T09:14:27;5.10;99.90
2463;DHT22;1243;54.298;10.172;2024-03-07T09:16:53;5.10;99.90
2463;DHT22;1243;54.298;10.172;2024-03-07T09:19:19;5.10;99.90
2463;DHT22;1243;54.298;10.172;2024-03-07T09:21:48;5.20;99.90
2463;DHT22;1243;54.298;10.172;2024-03-07T09:24:15;5.10;99.90
2463;DHT22;1243;54.298;10.172;2024-03-07T09:26:41;5.10;99.90
2463;DHT22;1243;54.298;10.172;2024-03-07T09:29:07;5.10;99.90
2463;DHT22;1243;54.298;10.172;2024-03-07T09:31:33;5.20;99.90
2463;DHT22;1243;54.298;10.172;2024-03-07T09:33:59;5.10;99.90
2463;DHT22;1243;54.298;10.172;2024-03-07T09:36:25;5.00;99.90
2463;DHT22;1243;54.298;10.172;2024-03-07T09:38:51;4.90;99.90
2463;DHT22;1243;54.298;10.172;2024-03-07T09:41:17;4.90;99.90
2463;DHT22;1243;54.298;10.172;2024-03-07T09:43:52;4.80;99.90
2463;DHT22;1243;54.298;10.172;2024-03-07T09:46:21;4.80;99.90
2463;DHT22;1243;54.298;10.172;2024-03-07T09:48:49;4.90;99.90
2463;DHT22;1243;54.298;10.172;2024-03-07T09:51:22;4.90;99.90
2463;DHT22;1243;54.298;10.172;2024-03-07T09:53:50;4.90;99.90
2463;DHT22;1243;54.298;10.172;2024-03-07T09:56:22;4.90;99.90
2463;DHT22;1243;54.298;10.172;2024-03-07T09:58:53;4.90;99.90
2463;DHT22;1243;54.298;10.172;2024-03-07T10:01:25;4.90;99.90
2463;DHT22;1243;54.298;10.172;2024-03-07T10:04:00;4.90;99.90
2463;DHT22;1243;54.298;10.172;2024-03-07T10:06:40;5.00;99.90
2463;DHT22;1243;54.298;10.172;2024-03-07T10:09:07;5.00;99.90
2463;DHT22;1243;54.298;10.172;2024-03-07T10:11:33;5.10;99.90
2463;DHT22;1243;54.298;10.172;2024-03-07T10:14:00;5.10;99.90
2463;DHT22;1243;54.298;10.172;2024-03-07T10:16:25;5.20;99.90
2463;DHT22;1243;54.298;10.172;2024-03-07T10:18:51;5.30;99.90
2463;DHT22;1243;54.298;10.172;2024-03-07T10:21:20;5.30;99.90
2463;DHT22;1243;54.298;10.172;2024-03-07T10:23:46;5.30;99.90
2463;DHT22;1243;54.298;10.172;2024-03-07T10:26:12;5.30;99.90
2463;DHT22;1243;54.298;10.172;2024-03-07T10:28:38;5.40;99.90
2463;DHT22;1243;54.298;10.172;2024-03-07T10:31:04;5.50;99.90
2463;DHT22;1243;54.298;10.172;2024-03-07T10:33:37;5.50;99.90
2463;DHT22;1243;54.298;10.172;2024-03-07T10:36:03;5.70;99.90
2463;DHT22;1243;54.298;10.172;2024-03-07T10:38:29;5.70;99.90
2463;DHT22;1243;54.298;10.172;2024-03-07T10:40:55;5.80;99.90
2463;DHT22;1243;54.298;10.172;2024-03-07T10:43:22;5.90;99.90
2463;DHT22;1243;54.298;10.172;2024-03-07T10:45:48;5.90;99.90
2463;DHT22;1243;54.298;10.172;2024-03-07T10:48:18;5.90;99.90
2463;DHT22;1243;54.298;10.172;2024-03-07T10:51:03;5.90;99.90
2463;DHT22;1243;54.298;10.172;2024-03-07T10:53:39;5.90;99.90
2463;DHT22;1243;54.298;10.172;2024-03-07T11:01:31;5.80;99.90
2463;DHT22;1243;54.298;10.172;2024-03-07T11:03:59;6.00;99.90
2463;DHT22;1243;54.298;10.172;2024-03-07T11:06:25;6.10;99.90
2463;DHT22;1243;54.298;10.172;2024-03-07T11:08:52;6.30;99.90
2463;DHT22;1243;54.298;10.172;2024-03-07T11:11:18;6.30;99.90
2463;DHT22;1243;54.298;10.172;2024-03-07T11:13:45;6.30;99.90
2463;DHT22;1243;54.298;10.172;2024-03-07T11:16:12;6.40;99.90
2463;DHT22;1243;54.298;10.172;2024-03-07T11:18:40;6.50;99.90
2463;DHT22;1243;54.298;10.172;2024-03-07T11:21:05;6.70;99.90
2463;DHT22;1243;54.298;10.172;2024-03-07T11:23:33;6.90;99.90
2463;DHT22;1243;54.298;10.172;2024-03-07T11:26:10;6.80;99.90
2463;DHT22;1243;54.298;10.172;2024-03-07T11:28:41;6.80;99.90
2463;DHT22;1243;54.298;10.172;2024-03-07T11:31:13;6.80;99.90
2463;DHT22;1243;54.298;10.172;2024-03-07T11:33:40;6.90;99.90
2463;DHT22;1243;54.298;10.172;2024-03-07T11:36:08;6.90;99.90
2463;DHT22;1243;54.298;10.172;2024-03-07T11:38:33;7.00;99.40
2463;DHT22;1243;54.298;10.172;2024-03-07T11:41:00;7.00;98.10
2463;DHT22;1243;54.298;10.172;2024-03-07T11:43:27;7.00;91.90
2463;DHT22;1243;54.298;10.172;2024-03-07T11:45:54;7.10;92.70
2463;DHT22;1243;54.298;10.172;2024-03-07T11:48:23;7.20;91.40
2463;DHT22;1243;54.298;10.172;2024-03-07T11:50:49;7.10;91.40
2463;DHT22;1243;54.298;10.172;2024-03-07T11:53:16;7.10;91.40
2463;DHT22;1243;54.298;10.172;2024-03-07T11:55:42;7.30;91.50
2463;DHT22;1243;54.298;10.172;2024-03-07T11:58:18;7.70;94.40
2463;DHT22;1243;54.298;10.172;2024-03-07T12:00:48;8.10;94.20
2463;DHT22;1243;54.298;10.172;2024-03-07T12:03:15;8.40;91.90
2463;DHT22;1243;54.298;10.172;2024-03-07T12:05:47;8.30;62.20
2463;DHT22;1243;54.298;10.172;2024-03-07T12:08:13;8.20;50.70
2463;DHT22;1243;54.298;10.172;2024-03-07T12:10:41;8.10;33.50
2463;DHT22;1243;54.298;10.172;2024-03-07T12:13:10;7.90;21.90
2463;DHT22;1243;54.298;10.172;2024-03-07T12:15:40;7.90;20.50
2463;DHT22;1243;54.298;10.172;2024-03-07T12:18:06;7.90;19.90
2463;DHT22;1243;54.298;10.172;2024-03-07T12:20:37;8.10;35.90
2463;DHT22;1243;54.298;10.172;2024-03-07T12:23:04;8.40;42.20
2463;DHT22;1243;54.298;10.172;2024-03-07T12:25:33;8.50;25.90
2463;DHT22;1243;54.298;10.172;2024-03-07T12:28:13;8.60;8.60
2463;DHT22;1243;54.298;10.172;2024-03-07T12:33:15;8.80;1.00
2463;DHT22;1243;54.298;10.172;2024-03-07T12:35:46;8.90;1.00
2463;DHT22;1243;54.298;10.172;2024-03-07T12:38:12;8.80;1.00
2463;DHT22;1243;54.298;10.172;2024-03-07T12:40:40;8.60;1.00
2463;DHT22;1243;54.298;10.172;2024-03-07T12:43:16;8.50;1.00
2463;DHT22;1243;54.298;10.172;2024-03-07T12:45:51;8.30;1.00
2463;DHT22;1243;54.298;10.172;2024-03-07T12:48:18;7.70;1.00
2463;DHT22;1243;54.298;10.172;2024-03-07T12:50:47;7.50;1.00
2463;DHT22;1243;54.298;10.172;2024-03-07T12:53:19;7.50;1.00
2463;DHT22;1243;54.298;10.172;2024-03-07T12:55:44;7.50;1.00
2463;DHT22;1243;54.298;10.172;2024-03-07T12:58:10;7.40;1.00
2463;DHT22;1243;54.298;10.172;2024-03-07T13:00:39;7.40;1.00
2463;DHT22;1243;54.298;10.172;2024-03-07T13:03:07;7.40;1.00
2463;DHT22;1243;54.298;10.172;2024-03-07T13:05:34;7.60;1.00
2463;DHT22;1243;54.298;10.172;2024-03-07T13:08:00;8.50;15.50
2463;DHT22;1243;54.298;10.172;2024-03-07T13:10:25;9.30;1.00
2463;DHT22;1243;54.298;10.172;2024-03-07T13:12:51;9.70;1.00
2463;DHT22;1243;54.298;10.172;2024-03-07T13:15:18;9.80;1.00
2463;DHT22;1243;54.298;10.172;2024-03-07T13:17:48;10.30;1.00
2463;DHT22;1243;54.298;10.172;2024-03-07T13:20:17;11.00;1.00
2463;DHT22;1243;54.298;10.172;2024-03-07T13:22:47;11.90;1.00
2463;DHT22;1243;54.298;10.172;2024-03-07T13:25:24;12.80;1.00
2463;DHT22;1243;54.298;10.172;2024-03-07T13:28:14;12.20;1.00
2463;DHT22;1243;54.298;10.172;2024-03-07T13:30:48;11.00;1.00
2463;DHT22;1243;54.298;10.172;2024-03-07T13:33:14;11.60;1.00
2463;DHT22;1243;54.298;10.172;2024-03-07T13:35:40;11.60;1.00
2463;DHT22;1243;54.298;10.172;2024-03-07T13:38:07;11.70;1.00
2463;DHT22;1243;54.298;10.172;2024-03-07T13:40:34;11.10;1.00
2463;DHT22;1243;54.298;10.172;2024-03-07T13:43:06;11.40;1.00
2463;DHT22;1243;54.298;10.172;2024-03-07T13:45:33;11.80;1.00
2463;DHT22;1243;54.298;10.172;2024-03-07T13:48:08;11.70;1.00
2463;DHT22;1243;54.298;10.172;2024-03-07T13:50:36;11.90;1.00
2463;DHT22;1243;54.298;10.172;2024-03-07T13:53:03;12.70;1.00
2463;DHT22;1243;54.298;10.172;2024-03-07T14:06:31;13.40;1.00
2463;DHT22;1243;54.298;10.172;2024-03-07T14:09:28;14.40;1.00
2463;DHT22;1243;54.298;10.172;2024-03-07T14:18:34;14.80;1.00
2463;DHT22;1243;54.298;10.172;2024-03-07T14:21:27;13.30;1.00
2463;DHT22;1243;54.298;10.172;2024-03-07T14:32:32;10.00;1.00
2463;DHT22;1243;54.298;10.172;2024-03-07T14:40:34;9.70;1.00
2463;DHT22;1243;54.298;10.172;2024-03-07T14:43:03;9.70;1.00
2463;DHT22;1243;54.298;10.172;2024-03-07T14:45:36;9.30;1.00
2463;DHT22;1243;54.298;10.172;2024-03-07T14:48:04;9.10;1.00
2463;DHT22;1243;54.298;10.172;2024-03-07T14:50:32;9.10;1.00
2463;DHT22;1243;54.298;10.172;2024-03-07T14:52:59;9.10;1.00
2463;DHT22;1243;54.298;10.172;2024-03-07T14:55:25;9.10;1.00
2463;DHT22;1243;54.298;10.172;2024-03-07T14:57:51;9.00;1.00
2463;DHT22;1243;54.298;10.172;2024-03-07T15:00:17;9.00;1.00
2463;DHT22;1243;54.298;10.172;2024-03-07T15:02:51;8.90;1.00
2463;DHT22;1243;54.298;10.172;2024-03-07T15:05:17;8.60;1.00
2463;DHT22;1243;54.298;10.172;2024-03-07T15:07:45;8.50;1.00
2463;DHT22;1243;54.298;10.172;2024-03-07T15:10:27;8.50;1.00
2463;DHT22;1243;54.298;10.172;2024-03-07T15:12:54;8.80;1.00
2463;DHT22;1243;54.298;10.172;2024-03-07T15:15:19;8.70;1.00
2463;DHT22;1243;54.298;10.172;2024-03-07T15:17:46;8.70;1.00
2463;DHT22;1243;54.298;10.172;2024-03-07T15:20:12;8.70;1.00
2463;DHT22;1243;54.298;10.172;2024-03-07T15:22:52;8.70;1.00
2463;DHT22;1243;54.298;10.172;2024-03-07T15:25:21;8.70;1.00
2463;DHT22;1243;54.298;10.172;2024-03-07T15:27:51;8.50;1.00
2463;DHT22;1243;54.298;10.172;2024-03-07T15:30:18;8.40;1.00
2463;DHT22;1243;54.298;10.172;2024-03-07T15:32:45;8.40;1.00
2463;DHT22;1243;54.298;10.172;2024-03-07T15:35:14;8.40;1.00
2463;DHT22;1243;54.298;10.172;2024-03-07T15:37:49;8.10;1.00
2463;DHT22;1243;54.298;10.172;2024-03-07T15:40:16;7.90;1.00
2463;DHT22;1243;54.298;10.172;2024-03-07T15:42:46;8.20;1.00
2463;DHT22;1243;54.298;10.172;2024-03-07T15:45:17;8.60;1.00
2463;DHT22;1243;54.298;10.172;2024-03-07T15:47:47;9.10;1.00
2463;DHT22;1243;54.298;10.172;2024-03-07T15:50:13;8.90;1.00
2463;DHT22;1243;54.298;10.172;2024-03-07T15:52:41;8.50;1.00
2463;DHT22;1243;54.298;10.172;2024-03-07T15:55:08;7.90;1.00
2463;DHT22;1243;54.298;10.172;2024-03-07T16:00:18;7.30;1.00
2463;DHT22;1243;54.298;10.172;2024-03-07T16:05:16;7.20;1.00
2463;DHT22;1243;54.298;10.172;2024-03-07T16:07:44;7.10;1.00
2463;DHT22;1243;54.298;10.172;2024-03-07T16:10:11;6.90;1.00
2463;DHT22;1243;54.298;10.172;2024-03-07T16:12:38;6.90;1.00
2463;DHT22;1243;54.298;10.172;2024-03-07T16:15:06;6.90;1.00
2463;DHT22;1243;54.298;10.172;2024-03-07T16:17:34;6.80;1.00
2463;DHT22;1243;54.298;10.172;2024-03-07T16:20:02;6.70;1.00
2463;DHT22;1243;54.298;10.172;2024-03-07T16:22:29;6.50;1.00
2463;DHT22;1243;54.298;10.172;2024-03-07T16:24:55;6.40;1.00
2463;DHT22;1243;54.298;10.172;2024-03-07T16:27:22;6.30;1.00
2463;DHT22;1243;54.298;10.172;2024-03-07T16:29:48;6.20;1.00
2463;DHT22;1243;54.298;10.172;2024-03-07T16:32:15;6.10;1.00
2463;DHT22;1243;54.298;10.172;2024-03-07T16:34:41;6.10;1.00
2463;DHT22;1243;54.298;10.172;2024-03-07T16:37:08;6.00;1.00
2463;DHT22;1243;54.298;10.172;2024-03-07T16:39:34;6.10;2.40
2463;DHT22;1243;54.298;10.172;2024-03-07T16:42:00;6.10;9.20
2463;DHT22;1243;54.298;10.172;2024-03-07T16:44:26;6.10;15.30
2463;DHT22;1243;54.298;10.172;2024-03-07T16:46:53;6.20;20.40
2463;DHT22;1243;54.298;10.172;2024-03-07T16:49:19;6.10;12.90
2463;DHT22;1243;54.298;10.172;2024-03-07T16:51:45;6.00;18.30
2463;DHT22;1243;54.298;10.172;2024-03-07T16:54:11;6.00;22.20
2463;DHT22;1243;54.298;10.172;2024-03-07T16:56:39;6.00;24.10